createdAt,value
2018-05-19T00:00:43.000Z,100925
2018-05-19T00:01:43.000Z,100927
2018-05-19T00:02:43.000Z,100926
2018-05-19T00:04:43.000Z,100928
2018-05-19T00:06:43.000Z,100924
2018-05-19T00:07:43.000Z,100933
2018-05-19T00:08:43.000Z,100928
2018-05-19T00:09:43.000Z,100927
2018-05-19T00:10:43.000Z,100920
2018-05-19T00:12:43.000Z,100923
2018-05-19T00:13:43.000Z,100927
2018-05-19T00:14:43.000Z,100930
2018-05-19T00:16:43.000Z,100927
2018-05-19T00:18:43.000Z,100923
2018-05-19T00:19:43.000Z,100929
2018-05-19T00:21:28.000Z,100922
2018-05-19T00:22:43.000Z,100925
2018-05-19T00:24:43.000Z,100928
2018-05-19T00:26:43.000Z,100922
2018-05-19T00:28:43.000Z,100923
2018-05-19T00:29:43.000Z,100923
2018-05-19T00:31:43.000Z,100928
2018-05-19T00:33:43.000Z,100924
2018-05-19T00:34:43.000Z,100925
2018-05-19T00:36:28.000Z,100919
2018-05-19T00:37:43.000Z,100920
2018-05-19T00:38:43.000Z,100921
2018-05-19T00:40:28.000Z,100922
2018-05-19T00:41:43.000Z,100916
2018-05-19T00:42:43.000Z,100921
2018-05-19T00:44:43.000Z,100917
2018-05-19T00:46:43.000Z,100922
2018-05-19T00:48:43.000Z,100929
2018-05-19T00:49:43.000Z,100928
2018-05-19T00:51:43.000Z,100932
2018-05-19T00:53:43.000Z,100932
2018-05-19T00:55:43.000Z,100929
2018-05-19T00:57:43.000Z,100928
2018-05-19T00:58:43.000Z,100927
2018-05-19T01:00:43.000Z,100928
2018-05-19T01:01:43.000Z,100930
2018-05-19T01:03:43.000Z,100922
2018-05-19T01:05:27.000Z,100920
2018-05-19T01:06:28.000Z,100899
2018-05-19T01:08:43.000Z,100916
2018-05-19T01:09:43.000Z,100917
2018-05-19T01:11:43.000Z,100920
2018-05-19T01:13:43.000Z,100916
2018-05-19T01:14:43.000Z,100913
2018-05-19T01:16:43.000Z,100917
2018-05-19T01:17:43.000Z,100913
2018-05-19T01:19:43.000Z,100911
2018-05-19T01:20:43.000Z,100916
2018-05-19T01:21:43.000Z,100910
2018-05-19T01:23:27.000Z,100913
2018-05-19T01:24:43.000Z,100911
2018-05-19T01:25:43.000Z,100916
2018-05-19T01:27:43.000Z,100906
2018-05-19T01:29:27.000Z,100910
2018-05-19T01:30:43.000Z,100907
2018-05-19T01:32:27.000Z,100906
2018-05-19T01:33:43.000Z,100908
2018-05-19T01:35:43.000Z,100909
2018-05-19T01:36:43.000Z,100911
2018-05-19T01:38:27.000Z,100919
2018-05-19T01:39:43.000Z,100919
2018-05-19T01:41:43.000Z,100922
2018-05-19T01:43:43.000Z,100920
2018-05-19T01:44:43.000Z,100912
2018-05-19T01:46:43.000Z,100918
2018-05-19T01:48:43.000Z,100917
2018-05-19T01:50:12.000Z,100919
2018-05-19T01:51:43.000Z,100923
2018-05-19T01:53:43.000Z,100916
2018-05-19T01:54:43.000Z,100918
2018-05-19T01:56:43.000Z,100915
2018-05-19T01:58:43.000Z,100914
2018-05-19T01:59:43.000Z,100913
2018-05-19T02:00:43.000Z,100912
2018-05-19T02:02:28.000Z,100911
2018-05-19T02:03:43.000Z,100906
2018-05-19T02:04:43.000Z,100906
2018-05-19T02:06:43.000Z,100904
2018-05-19T02:08:28.000Z,100899
2018-05-19T02:09:43.000Z,100899
2018-05-19T02:10:43.000Z,100896
2018-05-19T02:12:43.000Z,100897
2018-05-19T02:13:43.000Z,100897
2018-05-19T02:15:43.000Z,100898
2018-05-19T02:17:43.000Z,100896
2018-05-19T02:18:43.000Z,100901
2018-05-19T02:20:43.000Z,100897
2018-05-19T02:21:43.000Z,100894
2018-05-19T02:26:28.000Z,100900
2018-05-19T02:28:14.000Z,100896
2018-05-19T02:29:59.000Z,100894
2018-05-19T02:31:14.000Z,100897
2018-05-19T02:33:14.000Z,100896
2018-05-19T02:34:14.000Z,100900
2018-05-19T02:35:14.000Z,100904
2018-05-19T02:37:14.000Z,100901
2018-05-19T02:39:14.000Z,100899
2018-05-19T02:41:14.000Z,100905
2018-05-19T02:42:14.000Z,100901
2018-05-19T02:43:59.000Z,100900
2018-05-19T02:45:14.000Z,100902
2018-05-19T02:46:14.000Z,100904
2018-05-19T02:47:14.000Z,100902
2018-05-19T02:49:14.000Z,100897
2018-05-19T02:50:14.000Z,100901
2018-05-19T02:52:14.000Z,100902
2018-05-19T02:54:14.000Z,100901
2018-05-19T02:56:14.000Z,100901
2018-05-19T02:57:58.000Z,100900
2018-05-19T02:59:13.000Z,100902
2018-05-19T03:00:13.000Z,100904
2018-05-19T03:02:13.000Z,100904
2018-05-19T03:03:58.000Z,100904
2018-05-19T03:05:13.000Z,100900
2018-05-19T03:06:13.000Z,100895
2018-05-19T03:07:58.000Z,100896
2018-05-19T03:09:13.000Z,100897
2018-05-19T03:10:58.000Z,100902
2018-05-19T03:12:13.000Z,100895
2018-05-19T03:13:58.000Z,100898
2018-05-19T03:15:13.000Z,100892
2018-05-19T03:16:13.000Z,100891
2018-05-19T03:17:58.000Z,100897
2018-05-19T03:19:13.000Z,100893
2018-05-19T03:20:58.000Z,100890
2018-05-19T03:22:13.000Z,100893
2018-05-19T03:24:13.000Z,100889
2018-05-19T03:26:13.000Z,100896
2018-05-19T03:28:13.000Z,100887
2018-05-19T03:29:13.000Z,100893
2018-05-19T03:31:13.000Z,100896
2018-05-19T03:32:13.000Z,100895
2018-05-19T03:34:13.000Z,100901
2018-05-19T03:36:13.000Z,100899
2018-05-19T03:37:58.000Z,100898
2018-05-19T03:38:58.000Z,100901
2018-05-19T03:40:13.000Z,100903
2018-05-19T03:42:13.000Z,100906
2018-05-19T03:43:13.000Z,100905
2018-05-19T03:45:13.000Z,100904
2018-05-19T03:47:13.000Z,100902
2018-05-19T03:48:58.000Z,100895
2018-05-19T03:50:13.000Z,100905
2018-05-19T03:52:13.000Z,100910
2018-05-19T03:53:13.000Z,100906
2018-05-19T03:54:58.000Z,100904
2018-05-19T03:56:13.000Z,100905
2018-05-19T03:57:58.000Z,100907
2018-05-19T03:59:13.000Z,100905
2018-05-19T04:01:13.000Z,100908
2018-05-19T04:02:13.000Z,100912
2018-05-19T04:04:13.000Z,100905
2018-05-19T04:06:13.000Z,100913
2018-05-19T04:07:58.000Z,100912
2018-05-19T04:09:13.000Z,100915
2018-05-19T04:11:13.000Z,100917
2018-05-19T04:12:13.000Z,100916
2018-05-19T04:14:13.000Z,100913
2018-05-19T04:15:13.000Z,100924
2018-05-19T04:17:13.000Z,100921
2018-05-19T04:18:13.000Z,100925
2018-05-19T04:20:13.000Z,100923
2018-05-19T04:21:42.000Z,100923
2018-05-19T04:23:13.000Z,100920
2018-05-19T04:25:13.000Z,100924
2018-05-19T04:27:13.000Z,100928
2018-05-19T04:29:13.000Z,100929
2018-05-19T04:30:13.000Z,100930
2018-05-19T04:31:13.000Z,100933
2018-05-19T04:32:13.000Z,100932
2018-05-19T04:34:13.000Z,100934
2018-05-19T04:36:13.000Z,100934
2018-05-19T04:38:13.000Z,100934
2018-05-19T04:40:13.000Z,100936
2018-05-19T04:41:13.000Z,100939
2018-05-19T04:42:13.000Z,100938
2018-05-19T04:44:13.000Z,100939
2018-05-19T04:45:13.000Z,100942
2018-05-19T04:46:42.000Z,100942
2018-05-19T04:48:13.000Z,100944
2018-05-19T04:49:13.000Z,100940
2018-05-19T04:51:13.000Z,100939
2018-05-19T04:53:13.000Z,100942
2018-05-19T04:55:13.000Z,100939
2018-05-19T04:57:13.000Z,100946
2018-05-19T04:59:13.000Z,100946
2018-05-19T05:01:13.000Z,100951
2018-05-19T05:02:58.000Z,100950
2018-05-19T05:04:13.000Z,100953
2018-05-19T05:05:13.000Z,100951
2018-05-19T05:07:13.000Z,100954
2018-05-19T05:08:13.000Z,100952
2018-05-19T05:10:13.000Z,100958
2018-05-19T05:12:13.000Z,100954
2018-05-19T05:14:13.000Z,100958
2018-05-19T05:16:13.000Z,100957
2018-05-19T05:18:13.000Z,100959
2018-05-19T05:19:13.000Z,100957
2018-05-19T05:21:13.000Z,100959
2018-05-19T05:23:13.000Z,100962
2018-05-19T05:24:58.000Z,100964
2018-05-19T05:26:13.000Z,100966
2018-05-19T05:28:13.000Z,100966
2018-05-19T05:30:13.000Z,100973
2018-05-19T05:31:13.000Z,100976
2018-05-19T05:32:58.000Z,100974
2018-05-19T05:34:13.000Z,100979
2018-05-19T05:35:13.000Z,100973
2018-05-19T05:37:13.000Z,100984
2018-05-19T05:38:58.000Z,100973
2018-05-19T05:40:13.000Z,100976
2018-05-19T05:41:58.000Z,100983
2018-05-19T05:43:13.000Z,100978
2018-05-19T05:45:13.000Z,100980
2018-05-19T05:47:13.000Z,100982
2018-05-19T05:48:13.000Z,100981
2018-05-19T05:49:13.000Z,100982
2018-05-19T05:51:13.000Z,100984
2018-05-19T05:53:13.000Z,100984
2018-05-19T05:54:13.000Z,100982
2018-05-19T05:56:13.000Z,100985
2018-05-19T05:58:13.000Z,100986
2018-05-19T06:00:13.000Z,100989
2018-05-19T06:01:58.000Z,100989
2018-05-19T06:03:13.000Z,100987
2018-05-19T06:04:13.000Z,100988
2018-05-19T06:06:13.000Z,100992
2018-05-19T06:07:58.000Z,100991
2018-05-19T06:09:13.000Z,100991
2018-05-19T06:10:58.000Z,101000
2018-05-19T06:12:13.000Z,100997
2018-05-19T06:14:13.000Z,100999
2018-05-19T06:15:58.000Z,100998
2018-05-19T06:17:13.000Z,101001
2018-05-19T06:19:13.000Z,101007
2018-05-19T06:20:13.000Z,101008
2018-05-19T06:22:13.000Z,101004
2018-05-19T06:23:13.000Z,101012
2018-05-19T06:25:13.000Z,101011
2018-05-19T06:26:13.000Z,101009
2018-05-19T06:28:13.000Z,101013
2018-05-19T06:30:13.000Z,101016
2018-05-19T06:32:13.000Z,101011
2018-05-19T06:34:13.000Z,101016
2018-05-19T07:11:47.000Z,101024
2018-05-19T07:13:32.000Z,101022
2018-05-19T07:14:47.000Z,101021
2018-05-19T07:15:47.000Z,101021
2018-05-19T07:17:47.000Z,101019
2018-05-19T07:18:47.000Z,101019
2018-05-19T07:19:47.000Z,101016
2018-05-19T07:21:47.000Z,101014
2018-05-19T07:23:47.000Z,101014
2018-05-19T07:25:47.000Z,101016
2018-05-19T07:26:47.000Z,101011
2018-05-19T07:27:47.000Z,101012
2018-05-19T07:29:47.000Z,101011
2018-05-19T07:31:47.000Z,101011
2018-05-19T07:32:47.000Z,101011
2018-05-19T07:34:32.000Z,101015
2018-05-19T07:35:47.000Z,101010
2018-05-19T07:36:47.000Z,101006
2018-05-19T07:38:47.000Z,101013
2018-05-19T07:39:47.000Z,101009
2018-05-19T07:41:17.000Z,101008
2018-05-19T07:42:47.000Z,101005
2018-05-19T07:44:47.000Z,101012
2018-05-19T07:46:47.000Z,101005
2018-05-19T07:48:32.000Z,101006
2018-05-19T07:49:47.000Z,101012
2018-05-19T07:52:47.000Z,101007
2018-05-19T07:53:47.000Z,101004
2018-05-19T07:54:47.000Z,101007
2018-05-19T07:56:47.000Z,101005
2018-05-19T07:58:47.000Z,101009
2018-05-19T08:00:47.000Z,101006
2018-05-19T08:01:47.000Z,101000
2018-05-19T08:03:32.000Z,100999
2018-05-19T08:04:47.000Z,101009
2018-05-19T08:06:47.000Z,101004
2018-05-19T08:08:47.000Z,101000
2018-05-19T08:10:32.000Z,101000
2018-05-19T08:11:47.000Z,101004
2018-05-19T08:12:47.000Z,100999
2018-05-19T08:14:47.000Z,100997
2018-05-19T08:16:47.000Z,100996
2018-05-19T08:18:47.000Z,100996
2018-05-19T08:19:47.000Z,100994
2018-05-19T08:20:47.000Z,100995
2018-05-19T08:22:17.000Z,100998
2018-05-19T08:23:47.000Z,100994
2018-05-19T08:25:32.000Z,100990
2018-05-19T08:26:47.000Z,100994
2018-05-19T08:28:47.000Z,100992
2018-05-19T08:30:47.000Z,100988
2018-05-19T08:32:32.000Z,100990
2018-05-19T08:33:47.000Z,100992
2018-05-19T08:35:47.000Z,100991
2018-05-19T08:37:47.000Z,100988
2018-05-19T08:38:47.000Z,100993
2018-05-19T08:40:47.000Z,100989
2018-05-19T08:42:47.000Z,100992
2018-05-19T08:47:47.000Z,100993
2018-05-19T08:49:33.000Z,100996
2018-05-19T08:51:33.000Z,100998
2018-05-19T08:53:18.000Z,100993
2018-05-19T08:54:33.000Z,100996
2018-05-19T08:55:33.000Z,100992
2018-05-19T08:57:33.000Z,100995
2018-05-19T08:59:33.000Z,100998
2018-05-19T09:01:33.000Z,100996
2018-05-19T09:03:33.000Z,100999
2018-05-19T09:05:33.000Z,100995
2018-05-19T09:07:33.000Z,100993
2018-05-19T09:08:33.000Z,100996
2018-05-19T09:10:18.000Z,100994
2018-05-19T09:11:18.000Z,100995
2018-05-19T09:12:33.000Z,100993
2018-05-19T09:14:33.000Z,100992
2018-05-19T09:16:33.000Z,100994
2018-05-19T09:18:33.000Z,100991
2018-05-19T09:20:33.000Z,100994
2018-05-19T09:22:18.000Z,100993
2018-05-19T09:23:33.000Z,100993
2018-05-19T09:25:33.000Z,100993
2018-05-19T09:27:33.000Z,100995
2018-05-19T09:29:33.000Z,100991
2018-05-19T09:31:33.000Z,100993
2018-05-19T09:32:33.000Z,100994
2018-05-19T09:33:33.000Z,100991
2018-05-19T09:35:33.000Z,100992
2018-05-19T09:36:33.000Z,100992
2018-05-19T09:38:33.000Z,100990
2018-05-19T09:40:18.000Z,100989
2018-05-19T09:41:33.000Z,100986
2018-05-19T09:42:33.000Z,100989
2018-05-19T09:44:33.000Z,100984
2018-05-19T09:46:18.000Z,100990
2018-05-19T09:47:18.000Z,100985
2018-05-19T09:48:33.000Z,100985
2018-05-19T09:50:33.000Z,100989
2018-05-19T09:52:33.000Z,100991
2018-05-19T09:53:33.000Z,100987
2018-05-19T09:55:33.000Z,100992
2018-05-19T09:57:18.000Z,100990
2018-05-19T09:58:33.000Z,100994
2018-05-19T10:00:33.000Z,100991
2018-05-19T10:01:33.000Z,100994
2018-05-19T10:03:33.000Z,100990
2018-05-19T10:05:18.000Z,100992
2018-05-19T10:06:33.000Z,100993
2018-05-19T10:07:33.000Z,100993
2018-05-19T10:08:33.000Z,100989
2018-05-19T10:10:33.000Z,100994
2018-05-19T10:11:33.000Z,100995
2018-05-19T10:12:33.000Z,100993
2018-05-19T10:14:33.000Z,101001
2018-05-19T10:15:33.000Z,100999
2018-05-19T10:17:33.000Z,100998
2018-05-19T10:18:33.000Z,100996
2018-05-19T10:20:18.000Z,100996
2018-05-19T10:21:33.000Z,100998
2018-05-19T10:23:18.000Z,100996
2018-05-19T10:24:33.000Z,100999
2018-05-19T10:26:18.000Z,100991
2018-05-19T10:27:33.000Z,100991
2018-05-19T10:29:33.000Z,100998
2018-05-19T10:30:33.000Z,101004
2018-05-19T10:32:33.000Z,101003
2018-05-19T10:33:33.000Z,100996
2018-05-19T10:35:33.000Z,100999
2018-05-19T10:37:33.000Z,100998
2018-05-19T10:38:33.000Z,100997
2018-05-19T10:40:18.000Z,100998
2018-05-19T10:41:33.000Z,100995
2018-05-19T10:42:33.000Z,101000
2018-05-19T10:44:33.000Z,100991
2018-05-19T10:46:33.000Z,100994
2018-05-19T10:48:33.000Z,100998
2018-05-19T10:50:33.000Z,100990
2018-05-19T10:52:33.000Z,100996
2018-05-19T10:54:33.000Z,100996
2018-05-19T10:55:33.000Z,100995
2018-05-19T10:57:03.000Z,100998
2018-05-19T10:58:33.000Z,100998
2018-05-19T11:00:18.000Z,100995
2018-05-19T11:01:33.000Z,100993
2018-05-19T11:03:33.000Z,100990
2018-05-19T11:05:33.000Z,100987
2018-05-19T11:07:33.000Z,100989
2018-05-19T11:08:33.000Z,100990
2018-05-19T11:10:33.000Z,100991
2018-05-19T11:12:33.000Z,100982
2018-05-19T11:14:18.000Z,100985
2018-05-19T11:15:33.000Z,100990
2018-05-19T11:17:18.000Z,100985
2018-05-19T11:18:33.000Z,100986
2018-05-19T11:20:33.000Z,100983
2018-05-19T11:22:18.000Z,100984
2018-05-19T11:23:33.000Z,100983
2018-05-19T11:24:33.000Z,100987
2018-05-19T11:25:33.000Z,100984
2018-05-19T11:27:33.000Z,100988
2018-05-19T11:29:18.000Z,100983
2018-05-19T11:30:33.000Z,100983
2018-05-19T11:32:33.000Z,100979
2018-05-19T11:33:33.000Z,100982
2018-05-19T11:35:33.000Z,100979
2018-05-19T11:37:33.000Z,100975
2018-05-19T11:38:33.000Z,100976
2018-05-19T11:39:33.000Z,100979
2018-05-19T11:41:33.000Z,100973
2018-05-19T11:42:33.000Z,100973
2018-05-19T11:44:33.000Z,100973
2018-05-19T11:46:33.000Z,100974
2018-05-19T11:47:33.000Z,100968
2018-05-19T11:49:33.000Z,100975
2018-05-19T11:50:33.000Z,100965
2018-05-19T11:52:33.000Z,100971
2018-05-19T11:54:33.000Z,100967
2018-05-19T11:56:33.000Z,100971
2018-05-19T11:58:33.000Z,100966
2018-05-19T11:59:33.000Z,100965
2018-05-19T12:01:33.000Z,100966
2018-05-19T12:03:33.000Z,100962
2018-05-19T12:05:33.000Z,100967
2018-05-19T12:06:33.000Z,100963
2018-05-19T12:08:33.000Z,100967
2018-05-19T12:10:33.000Z,100957
2018-05-19T12:11:33.000Z,100963
2018-05-19T12:12:33.000Z,100965
2018-05-19T12:14:33.000Z,100959
2018-05-19T12:15:33.000Z,100959
2018-05-19T12:16:33.000Z,100956
2018-05-19T12:17:33.000Z,100961
2018-05-19T12:19:33.000Z,100950
2018-05-19T12:21:33.000Z,100955
2018-05-19T12:23:33.000Z,100954
2018-05-19T12:27:19.000Z,100947
2018-05-19T12:29:04.000Z,100953
2018-05-19T12:30:19.000Z,100947
2018-05-19T12:31:19.000Z,100951
2018-05-19T12:33:19.000Z,100953
2018-05-19T12:34:19.000Z,100948
2018-05-19T12:36:04.000Z,100947
2018-05-19T12:37:19.000Z,100947
2018-05-19T12:38:19.000Z,100945
2018-05-19T12:40:19.000Z,100939
2018-05-19T12:42:19.000Z,100950
2018-05-19T12:44:04.000Z,100941
2018-05-19T12:45:19.000Z,100938
2018-05-19T12:47:19.000Z,100936
2018-05-19T12:48:19.000Z,100937
2018-05-19T12:49:19.000Z,100937
2018-05-19T12:50:19.000Z,100935
2018-05-19T12:52:04.000Z,100934
2018-05-19T12:53:19.000Z,100939
2018-05-19T12:55:19.000Z,100930
2018-05-19T12:57:19.000Z,100932
2018-05-19T12:58:19.000Z,100932
2018-05-19T13:00:19.000Z,100934
2018-05-19T13:02:19.000Z,100927
2018-05-19T13:04:19.000Z,100932
2018-05-19T13:06:19.000Z,100931
2018-05-19T13:07:19.000Z,100931
2018-05-19T13:09:04.000Z,100933
2018-05-19T13:10:19.000Z,100930
2018-05-19T13:11:49.000Z,100930
2018-05-19T13:13:19.000Z,100934
2018-05-19T13:14:19.000Z,100927
2018-05-19T13:15:19.000Z,100927
2018-05-19T13:17:19.000Z,100925
2018-05-19T13:19:19.000Z,100928
2018-05-19T13:21:19.000Z,100931
2018-05-19T13:23:19.000Z,100923
2018-05-19T13:25:19.000Z,100925
2018-05-19T13:27:19.000Z,100928
2018-05-19T13:29:19.000Z,100923
2018-05-19T13:30:19.000Z,100924
2018-05-19T13:32:05.000Z,100922
2018-05-19T13:33:20.000Z,100921
2018-05-19T13:35:05.000Z,100923
2018-05-19T13:36:05.000Z,100915
2018-05-19T13:37:20.000Z,100916
2018-05-19T13:38:20.000Z,100920
2018-05-19T13:40:20.000Z,100923
2018-05-19T13:42:20.000Z,100918
2018-05-19T13:44:20.000Z,100917
2018-05-19T13:45:20.000Z,100918
2018-05-19T13:47:20.000Z,100918
2018-05-19T13:49:20.000Z,100915
2018-05-19T13:51:20.000Z,100913
2018-05-19T13:53:20.000Z,100918
2018-05-19T13:55:20.000Z,100916
2018-05-19T13:57:20.000Z,100911
2018-05-19T13:58:20.000Z,100915
2018-05-19T14:00:20.000Z,100904
2018-05-19T14:02:20.000Z,100908
2018-05-19T14:04:20.000Z,100906
2018-05-19T14:06:05.000Z,100906
2018-05-19T14:07:20.000Z,100905
2018-05-19T14:09:20.000Z,100904
2018-05-19T14:10:20.000Z,100909
2018-05-19T14:12:20.000Z,100897
2018-05-19T14:13:20.000Z,100897
2018-05-19T14:15:05.000Z,100901
2018-05-19T14:16:20.000Z,100892
2018-05-19T14:17:20.000Z,100894
2018-05-19T14:18:20.000Z,100897
2018-05-19T14:20:05.000Z,100895
2018-05-19T14:21:20.000Z,100898
2018-05-19T14:22:20.000Z,100892
2018-05-19T14:24:20.000Z,100897
2018-05-19T14:25:20.000Z,100900
2018-05-19T14:26:20.000Z,100897
2018-05-19T14:28:20.000Z,100901
2018-05-19T14:30:20.000Z,100894
2018-05-19T14:31:20.000Z,100893
2018-05-19T14:33:20.000Z,100896
2018-05-19T14:34:20.000Z,100893
2018-05-19T14:35:20.000Z,100893
2018-05-19T14:37:20.000Z,100895
2018-05-19T14:38:20.000Z,100890
2018-05-19T14:40:05.000Z,100892
2018-05-19T14:41:20.000Z,100893
2018-05-19T14:42:20.000Z,100890
2018-05-19T14:44:20.000Z,100894
2018-05-19T14:46:20.000Z,100890
2018-05-19T14:48:20.000Z,100893
2018-05-19T14:49:20.000Z,100892
2018-05-19T14:51:20.000Z,100885
2018-05-19T14:52:20.000Z,100892
2018-05-19T14:54:20.000Z,100887
2018-05-19T14:55:20.000Z,100891
2018-05-19T14:57:20.000Z,100884
2018-05-19T14:59:20.000Z,100886
2018-05-19T15:00:20.000Z,100888
2018-05-19T15:01:20.000Z,100882
2018-05-19T15:03:20.000Z,100882
2018-05-19T15:05:05.000Z,100883
2018-05-19T15:06:20.000Z,100884
2018-05-19T15:07:20.000Z,100887
2018-05-19T15:09:20.000Z,100881
2018-05-19T15:11:20.000Z,100882
2018-05-19T15:13:20.000Z,100882
2018-05-19T15:15:20.000Z,100881
2018-05-19T15:17:20.000Z,100881
2018-05-19T15:19:05.000Z,100872
2018-05-19T15:20:20.000Z,100877
2018-05-19T15:21:20.000Z,100874
2018-05-19T15:23:20.000Z,100873
2018-05-19T15:24:20.000Z,100873
2018-05-19T15:25:20.000Z,100872
2018-05-19T15:27:05.000Z,100867
2018-05-19T15:28:20.000Z,100869
2018-05-19T15:30:20.000Z,100868
2018-05-19T15:32:20.000Z,100866
2018-05-19T15:34:20.000Z,100867
2018-05-19T15:36:20.000Z,100865
2018-05-19T15:38:20.000Z,100862
2018-05-19T15:39:20.000Z,100864
2018-05-19T15:40:49.000Z,100864
2018-05-19T15:42:19.000Z,100859
2018-05-19T15:44:20.000Z,100853
2018-05-19T15:46:20.000Z,100858
2018-05-19T15:47:20.000Z,100860
2018-05-19T15:49:20.000Z,100863
2018-05-19T15:51:04.000Z,100851
2018-05-19T15:52:19.000Z,100856
2018-05-19T15:54:04.000Z,100854
2018-05-19T15:55:20.000Z,100855
2018-05-19T15:57:19.000Z,100858
2018-05-19T15:58:19.000Z,100860
2018-05-19T15:59:20.000Z,100863
2018-05-19T16:01:19.000Z,100861
2018-05-19T16:02:19.000Z,100860
2018-05-19T16:04:20.000Z,100858
2018-05-19T16:06:20.000Z,100856
2018-05-19T16:08:19.000Z,100856
2018-05-19T16:10:20.000Z,100854
2018-05-19T16:12:20.000Z,100858
2018-05-19T16:14:19.000Z,100853
2018-05-19T16:16:04.000Z,100853
2018-05-19T16:17:20.000Z,100847
2018-05-19T16:19:19.000Z,100850
2018-05-19T16:20:19.000Z,100852
2018-05-19T16:21:20.000Z,100850
2018-05-19T16:23:19.000Z,100847
2018-05-19T16:24:20.000Z,100847
2018-05-19T16:26:20.000Z,100843
2018-05-19T16:28:19.000Z,100843
2018-05-19T16:30:20.000Z,100841
2018-05-19T16:32:20.000Z,100838
2018-05-19T16:34:04.000Z,100838
2018-05-19T16:35:20.000Z,100842
2018-05-19T16:37:20.000Z,100838
2018-05-19T16:39:19.000Z,100839
2018-05-19T16:41:19.000Z,100842
2018-05-19T16:42:20.000Z,100833
2018-05-19T16:44:20.000Z,100836
2018-05-19T16:46:20.000Z,100838
2018-05-19T16:48:20.000Z,100844
2018-05-19T16:49:20.000Z,100843
2018-05-19T16:50:20.000Z,100841
2018-05-19T16:52:20.000Z,100832
2018-05-19T16:53:20.000Z,100835
2018-05-19T16:54:20.000Z,100832
2018-05-19T16:56:20.000Z,100831
2018-05-19T16:58:20.000Z,100836
2018-05-19T17:00:20.000Z,100829
2018-05-19T17:02:20.000Z,100838
2018-05-19T17:03:20.000Z,100839
2018-05-19T17:04:20.000Z,100840
2018-05-19T17:06:20.000Z,100836
2018-05-19T17:07:20.000Z,100838
2018-05-19T17:09:05.000Z,100836
2018-05-19T17:10:20.000Z,100835
2018-05-19T17:11:20.000Z,100840
2018-05-19T17:12:20.000Z,100836
2018-05-19T17:14:20.000Z,100839
2018-05-19T17:16:05.000Z,100836
2018-05-19T17:17:20.000Z,100836
2018-05-19T17:18:20.000Z,100840
2018-05-19T17:19:20.000Z,100845
2018-05-19T17:21:20.000Z,100839
2018-05-19T17:22:20.000Z,100837
2018-05-19T17:24:20.000Z,100840
2018-05-19T17:25:49.000Z,100841
2018-05-19T17:27:20.000Z,100836
2018-05-19T17:29:20.000Z,100843
2018-05-19T17:31:20.000Z,100835
2018-05-19T17:33:20.000Z,100834
2018-05-19T17:34:20.000Z,100838
2018-05-19T17:36:20.000Z,100845
2018-05-19T17:38:20.000Z,100844
2018-05-19T17:40:20.000Z,100844
2018-05-19T17:42:20.000Z,100840
2018-05-19T17:44:20.000Z,100851
2018-05-19T17:46:19.000Z,100847
2018-05-19T17:48:04.000Z,100847
2018-05-19T17:49:19.000Z,100847
2018-05-19T17:51:19.000Z,100848
2018-05-19T17:52:19.000Z,100848
2018-05-19T17:54:19.000Z,100852
2018-05-19T17:56:19.000Z,100855
2018-05-19T17:58:19.000Z,100857
2018-05-19T17:59:19.000Z,100861
2018-05-19T18:01:19.000Z,100857
2018-05-19T18:02:19.000Z,100860
2018-05-19T18:03:19.000Z,100861
2018-05-19T18:05:04.000Z,100868
2018-05-19T18:06:19.000Z,100857
2018-05-19T18:08:19.000Z,100864
2018-05-19T18:10:19.000Z,100863
2018-05-19T18:11:49.000Z,100859
2018-05-19T18:13:19.000Z,100860
2018-05-19T18:15:04.000Z,100862
2018-05-19T18:16:19.000Z,100866
2018-05-19T18:18:19.000Z,100862
2018-05-19T18:19:19.000Z,100863
2018-05-19T18:21:04.000Z,100868
2018-05-19T18:22:19.000Z,100868
2018-05-19T18:24:19.000Z,100874
2018-05-19T18:26:19.000Z,100875
2018-05-19T18:28:19.000Z,100871
2018-05-19T18:29:19.000Z,100870
2018-05-19T18:30:19.000Z,100876
2018-05-19T18:32:19.000Z,100874
2018-05-19T18:34:19.000Z,100873
2018-05-19T18:35:19.000Z,100871
2018-05-19T18:36:19.000Z,100876
2018-05-19T18:38:19.000Z,100872
2018-05-19T18:40:19.000Z,100877
2018-05-19T18:42:04.000Z,100879
2018-05-19T18:43:19.000Z,100884
2018-05-19T18:44:19.000Z,100878
2018-05-19T18:46:19.000Z,100877
2018-05-19T18:48:19.000Z,100878
2018-05-19T18:50:20.000Z,100888
2018-05-19T18:51:20.000Z,100882
2018-05-19T18:53:20.000Z,100887
2018-05-19T18:55:20.000Z,100883
2018-05-19T18:57:20.000Z,100892
2018-05-19T18:59:04.000Z,100893
2018-05-19T19:00:20.000Z,100896
2018-05-19T19:01:20.000Z,100893
2018-05-19T19:03:20.000Z,100892
2018-05-19T19:04:49.000Z,100898
2018-05-19T19:06:20.000Z,100899
2018-05-19T19:07:20.000Z,100901
2018-05-19T19:09:20.000Z,100906
2018-05-19T19:11:20.000Z,100910
2018-05-19T19:13:20.000Z,100919
2018-05-19T19:14:20.000Z,100915
2018-05-19T19:15:20.000Z,100912
2018-05-19T19:17:20.000Z,100918
2018-05-19T19:18:20.000Z,100920
2018-05-19T19:19:20.000Z,100917
2018-05-19T19:21:04.000Z,100928
2018-05-19T19:22:20.000Z,100925
2018-05-19T19:24:20.000Z,100927
2018-05-19T19:25:20.000Z,100931
2018-05-19T19:26:49.000Z,100931
2018-05-19T19:28:20.000Z,100931
2018-05-19T19:29:20.000Z,100936
2018-05-19T19:31:04.000Z,100940
2018-05-19T19:32:20.000Z,100942
2018-05-19T19:33:20.000Z,100941
2018-05-19T19:35:20.000Z,100942
2018-05-19T19:37:20.000Z,100942
2018-05-19T19:38:20.000Z,100943
2018-05-19T19:39:20.000Z,100947
2018-05-19T19:41:20.000Z,100949
2018-05-19T19:43:20.000Z,100947
2018-05-19T19:45:20.000Z,100946
2018-05-19T19:47:20.000Z,100953
2018-05-19T19:48:20.000Z,100948
2018-05-19T19:50:20.000Z,100943
2018-05-19T19:52:04.000Z,100949
2018-05-19T19:53:20.000Z,100954
2018-05-19T19:55:19.000Z,100950
2018-05-19T19:57:19.000Z,100955
2018-05-19T19:58:49.000Z,100957
2018-05-19T20:00:19.000Z,100955
2018-05-19T20:05:19.000Z,100965
2018-05-19T20:07:05.000Z,100969
2018-05-19T20:08:05.000Z,100968
2018-05-19T20:10:05.000Z,100971
2018-05-19T20:12:05.000Z,100966
2018-05-19T20:13:05.000Z,100961
2018-05-19T20:14:50.000Z,100966
2018-05-19T20:16:05.000Z,100962
2018-05-19T20:18:05.000Z,100970
2018-05-19T20:20:05.000Z,100962
2018-05-19T20:21:05.000Z,100970
2018-05-19T20:23:05.000Z,100968
2018-05-19T20:25:05.000Z,100961
2018-05-19T20:26:05.000Z,100964
2018-05-19T20:27:50.000Z,100967
2018-05-19T20:29:05.000Z,100965
2018-05-19T20:30:05.000Z,100972
2018-05-19T20:32:05.000Z,100968
2018-05-19T20:34:05.000Z,100970
2018-05-19T20:36:05.000Z,100970